Jameson, Missouri
Current Conditions -  °F | °C
As of 3:53 PM on Saturday 25 Oct 2014 (Local Time) from KLWD Reporting Station
Clear Clear  
Wind Chill: 24°   Ceiling: Unl
Heat Index: 24°   Visibility: 10mi
Dew Point:   Wind: 5mph
Humidity: 37%   Direction: 20°NNE
Pressure: 30.06"   Gusts: NA
Location:  40.01°N, 93.98°W
Report Text: KLWD 252053Z AUTO 02004KT 10SM CLR 24/09 A3006 RMK AO2 SLP175 T02440089 56009
Loading
Personal Weather Stations






























Interactive Weather Map
Tropical Storm Tracking
New forecast layout! Learn more

10-Day Weather Forecast

Advertisements
Track Severe Weather on mobile